createdAt,value
2018-11-05T00:02:04.937Z,18.53
2018-11-05T00:04:33.337Z,18.27
2018-11-05T00:07:01.721Z,18.60
2018-11-05T00:09:30.036Z,19.53
2018-11-05T00:11:59.150Z,18.90
2018-11-05T00:14:27.505Z,19.77
2018-11-05T00:16:56.565Z,20.03
2018-11-05T00:19:24.924Z,19.53
2018-11-05T00:21:53.265Z,20.13
2018-11-05T00:24:21.714Z,19.83
2018-11-05T00:26:50.885Z,19.90
2018-11-05T00:29:20.583Z,20.30
2018-11-05T00:31:48.917Z,20.53
2018-11-05T00:34:17.272Z,19.20
2018-11-05T00:36:45.939Z,19.87
2018-11-05T00:39:14.312Z,19.37
2018-11-05T00:41:42.745Z,19.57
2018-11-05T00:44:11.079Z,20.57
2018-11-05T00:46:39.413Z,20.47
2018-11-05T00:49:07.845Z,20.33
2018-11-05T00:51:36.214Z,20.07
2018-11-05T00:54:04.583Z,20.10
2018-11-05T00:56:33.258Z,21.40
2018-11-05T00:59:01.671Z,21.17
2018-11-05T01:01:30.028Z,20.93
2018-11-05T01:03:58.367Z,19.20
2018-11-05T01:06:26.798Z,21.13
2018-11-05T01:08:55.379Z,20.67
2018-11-05T01:11:23.744Z,20.10
2018-11-05T01:13:52.109Z,19.80
2018-11-05T01:16:21.231Z,19.73
2018-11-05T01:18:49.580Z,19.70
2018-11-05T01:21:17.993Z,19.90
2018-11-05T01:23:46.373Z,19.50
2018-11-05T01:26:14.739Z,20.47
2018-11-05T01:28:43.079Z,19.60
2018-11-05T01:31:11.433Z,19.33
2018-11-05T01:33:40.939Z,19.03
2018-11-05T01:36:09.267Z,20.83
2018-11-05T01:38:38.414Z,18.87
2018-11-05T01:41:06.737Z,19.97
2018-11-05T01:43:35.864Z,20.07
2018-11-05T01:46:04.253Z,21.07
2018-11-05T01:48:32.625Z,20.90
2018-11-05T01:51:01.006Z,18.50
2018-11-05T01:53:29.380Z,20.90
2018-11-05T01:55:57.761Z,19.30
2018-11-05T01:58:26.165Z,19.43
2018-11-05T02:00:54.517Z,20.57
2018-11-05T02:03:22.887Z,19.57
2018-11-05T02:05:51.282Z,21.03
2018-11-05T02:08:19.619Z,21.10
2018-11-05T02:10:47.962Z,21.73
2018-11-05T02:13:16.371Z,21.50
2018-11-05T02:15:44.693Z,21.63
2018-11-05T02:18:13.075Z,22.20
2018-11-05T02:20:41.479Z,21.23
2018-11-05T02:23:09.826Z,22.10
2018-11-05T02:25:38.183Z,21.30
2018-11-05T02:28:06.605Z,23.10
2018-11-05T02:30:34.984Z,22.33
2018-11-05T02:33:03.363Z,22.03
2018-11-05T02:35:31.709Z,22.93
2018-11-05T02:38:00.827Z,22.63
2018-11-05T02:40:29.167Z,22.80
2018-11-05T02:42:58.305Z,22.77
2018-11-05T02:45:26.674Z,21.17
2018-11-05T02:47:55.069Z,20.87
2018-11-05T02:50:23.427Z,22.50
2018-11-05T02:52:51.781Z,22.87
2018-11-05T02:55:20.893Z,23.70
2018-11-05T02:57:50.028Z,23.97
2018-11-05T03:00:18.370Z,23.17
2018-11-05T03:02:47.490Z,24.17
2018-11-05T03:05:15.851Z,22.40
2018-11-05T03:07:44.954Z,23.77
2018-11-05T03:10:13.346Z,24.23
2018-11-05T03:12:41.699Z,24.93
2018-11-05T03:15:10.064Z,24.80
2018-11-05T03:17:38.403Z,24.20
2018-11-05T03:20:06.763Z,23.50
2018-11-05T03:22:35.111Z,23.43
2018-11-05T03:25:04.237Z,25.87
2018-11-05T03:27:32.617Z,26.17
2018-11-05T03:30:00.995Z,24.67
2018-11-05T03:32:29.349Z,24.63
2018-11-05T03:34:57.710Z,25.33
2018-11-05T03:37:26.054Z,24.27
2018-11-05T03:39:54.423Z,25.00
2018-11-05T03:42:22.774Z,24.40
2018-11-05T03:44:51.169Z,24.83
2018-11-05T03:47:19.531Z,23.40
2018-11-05T03:49:47.871Z,23.67
2018-11-05T03:52:16.243Z,24.00
2018-11-05T03:54:44.583Z,22.77
2018-11-05T03:57:12.962Z,23.77
2018-11-05T03:59:41.277Z,22.37
2018-11-05T04:02:09.642Z,23.43
2018-11-05T04:04:37.980Z,23.27
2018-11-05T04:07:06.379Z,22.17
2018-11-05T04:09:34.751Z,22.50
2018-11-05T04:12:03.109Z,22.77
2018-11-05T04:14:32.328Z,21.93
2018-11-05T04:17:00.679Z,22.47
2018-11-05T04:19:29.803Z,23.80
2018-11-05T04:21:58.177Z,23.03
2018-11-05T04:24:27.384Z,23.13
2018-11-05T04:26:55.738Z,23.67
2018-11-05T04:29:24.961Z,24.07
2018-11-05T04:31:53.351Z,23.83
2018-11-05T04:34:21.699Z,24.20
2018-11-05T04:36:50.148Z,25.73
2018-11-05T04:39:18.487Z,25.27
2018-11-05T04:41:46.855Z,24.90
2018-11-05T04:44:15.211Z,25.13
2018-11-05T04:46:44.343Z,27.33
2018-11-05T04:49:12.685Z,26.13
2018-11-05T04:51:41.814Z,27.13
2018-11-05T04:54:10.703Z,28.40
2018-11-05T04:56:39.049Z,29.83
2018-11-05T04:59:08.191Z,33.20
2018-11-05T05:01:36.545Z,36.80
2018-11-05T05:04:04.936Z,37.27
2018-11-05T05:06:33.323Z,35.37
2018-11-05T05:09:01.700Z,37.13
2018-11-05T05:11:30.184Z,39.10
2018-11-05T05:13:58.671Z,38.73
2018-11-05T05:16:27.136Z,40.87
2018-11-05T05:18:55.635Z,44.83
2018-11-05T05:21:24.115Z,40.50
2018-11-05T05:23:52.709Z,40.63
2018-11-05T05:26:21.175Z,41.93
2018-11-05T05:28:49.539Z,38.93
2018-11-05T05:31:17.935Z,43.20
2018-11-05T05:33:46.368Z,43.97
2018-11-05T05:36:14.707Z,45.23
2018-11-05T05:38:43.053Z,45.00
2018-11-05T05:41:11.472Z,45.37
2018-11-05T05:43:44.683Z,44.83
2018-11-05T05:46:13.009Z,43.63
2018-11-05T05:48:41.402Z,45.40
2018-11-05T05:51:09.883Z,45.60
2018-11-05T05:53:38.229Z,44.87
2018-11-05T05:56:06.617Z,44.43
2018-11-05T05:58:35.731Z,44.03
2018-11-05T06:01:04.085Z,45.73
2018-11-05T06:03:33.207Z,46.20
2018-11-05T06:06:01.673Z,42.13
2018-11-05T06:08:29.963Z,41.97
2018-11-05T06:10:58.354Z,43.40
2018-11-05T06:13:26.751Z,43.07
2018-11-05T06:15:55.173Z,41.77
2018-11-05T06:18:23.503Z,41.43
2018-11-05T06:20:51.847Z,42.47
2018-11-05T06:23:20.990Z,43.43
2018-11-05T06:25:49.315Z,44.30
2018-11-05T06:28:18.575Z,43.03
2018-11-05T06:30:46.908Z,40.83
2018-11-05T06:33:17.394Z,41.33
2018-11-05T06:35:45.791Z,40.80
2018-11-05T06:38:14.218Z,40.90
2018-11-05T06:40:42.583Z,40.67
2018-11-05T06:43:10.996Z,44.43
2018-11-05T06:45:39.360Z,45.67
2018-11-05T06:48:07.710Z,40.93
2018-11-05T06:50:36.071Z,38.23
2018-11-05T06:53:04.408Z,34.77
2018-11-05T06:55:32.776Z,37.13
2018-11-05T06:58:01.112Z,37.30
2018-11-05T07:00:30.250Z,40.87
2018-11-05T07:02:58.591Z,37.63
2018-11-05T07:05:27.715Z,37.43
2018-11-05T07:07:56.117Z,35.73
2018-11-05T07:10:24.463Z,38.57
2018-11-05T07:12:52.810Z,38.13
2018-11-05T07:15:21.163Z,37.13
2018-11-05T07:17:49.515Z,37.00
2018-11-05T07:20:17.874Z,37.23
2018-11-05T07:22:46.211Z,38.27
2018-11-05T07:25:14.594Z,36.53
2018-11-05T07:27:43.002Z,37.37
2018-11-05T07:30:11.338Z,35.00
2018-11-05T07:32:39.646Z,36.27
2018-11-05T07:35:08.799Z,35.23
2018-11-05T07:37:37.134Z,36.20
2018-11-05T07:40:06.232Z,34.70
2018-11-05T07:42:35.364Z,32.73
2018-11-05T07:45:03.702Z,35.63
2018-11-05T07:47:32.830Z,34.00
2018-11-05T07:50:01.204Z,35.13
2018-11-05T07:52:30.303Z,35.17
2018-11-05T07:54:58.636Z,36.37
2018-11-05T07:57:27.287Z,34.13
2018-11-05T07:59:55.673Z,36.53
2018-11-05T08:02:24.022Z,35.47
2018-11-05T08:04:52.419Z,33.60
2018-11-05T08:07:20.785Z,33.90
2018-11-05T08:09:49.159Z,36.23
2018-11-05T08:12:17.504Z,35.17
2018-11-05T08:14:45.869Z,33.93
2018-11-05T08:17:14.221Z,34.70
2018-11-05T08:19:42.572Z,32.70
2018-11-05T08:22:10.920Z,32.60
2018-11-05T08:24:39.263Z,31.63
2018-11-05T08:27:07.617Z,29.90
2018-11-05T08:29:36.031Z,31.43
2018-11-05T08:32:04.397Z,29.57
2018-11-05T08:34:32.864Z,30.80
2018-11-05T08:37:01.250Z,31.37
2018-11-05T08:39:29.583Z,29.87
2018-11-05T08:41:58.718Z,29.70
2018-11-05T08:44:27.075Z,30.67
2018-11-05T08:46:56.462Z,28.80
2018-11-05T08:49:24.801Z,29.07
2018-11-05T08:51:53.297Z,28.77
2018-11-05T08:54:21.509Z,28.77
2018-11-05T08:56:49.914Z,28.47
2018-11-05T08:59:18.251Z,27.70
2018-11-05T09:01:46.703Z,26.97
2018-11-05T09:04:15.067Z,29.43
2018-11-05T09:06:43.459Z,28.73
2018-11-05T09:09:11.797Z,26.80
2018-11-05T09:11:40.206Z,26.53
2018-11-05T09:14:09.308Z,27.73
2018-11-05T09:16:37.654Z,28.47
2018-11-05T09:19:06.085Z,28.40
2018-11-05T09:21:34.464Z,28.80
2018-11-05T09:24:02.828Z,29.10
2018-11-05T09:26:31.199Z,29.00
2018-11-05T09:28:59.660Z,33.10
2018-11-05T09:31:27.996Z,29.87
2018-11-05T09:33:57.142Z,29.63
2018-11-05T09:36:25.516Z,30.60
2018-11-05T09:38:53.851Z,29.47
2018-11-05T09:41:22.278Z,28.67
2018-11-05T09:43:50.612Z,30.40
2018-11-05T09:46:19.115Z,30.10
2018-11-05T09:48:48.276Z,30.83
2018-11-05T09:51:16.639Z,30.87
2018-11-05T09:53:44.978Z,31.77
2018-11-05T09:56:13.319Z,31.90
2018-11-05T09:58:41.704Z,32.13
2018-11-05T10:01:10.200Z,32.17
2018-11-05T10:03:38.755Z,32.83
2018-11-05T10:06:07.004Z,31.23
2018-11-05T10:08:35.317Z,31.33
2018-11-05T10:11:03.797Z,32.30
2018-11-05T10:13:32.139Z,39.57
2018-11-05T10:16:00.506Z,32.80
2018-11-05T10:18:28.892Z,33.17
2018-11-05T10:20:57.272Z,31.90
2018-11-05T10:23:25.612Z,31.53
2018-11-05T10:25:53.995Z,33.43
2018-11-05T10:28:23.121Z,33.03
2018-11-05T10:30:51.501Z,32.30
2018-11-05T10:33:20.036Z,31.10
2018-11-05T10:35:48.357Z,32.87
2018-11-05T10:38:16.831Z,34.63
2018-11-05T10:40:45.184Z,33.10
2018-11-05T10:43:13.597Z,32.57
2018-11-05T10:45:41.990Z,33.83
2018-11-05T10:48:10.379Z,33.03
2018-11-05T10:50:38.756Z,33.73
2018-11-05T10:53:07.096Z,33.53
2018-11-05T10:55:35.427Z,33.83
2018-11-05T10:58:04.012Z,34.07
2018-11-05T11:00:32.281Z,32.90
2018-11-05T11:03:00.677Z,32.77
2018-11-05T11:05:29.164Z,35.30
2018-11-05T11:07:58.287Z,34.07
2018-11-05T11:10:26.653Z,34.03
2018-11-05T11:12:54.999Z,34.00
2018-11-05T11:15:23.434Z,32.60
2018-11-05T11:17:52.043Z,36.00
2018-11-05T11:20:20.423Z,34.13
2018-11-05T11:22:48.933Z,33.47
2018-11-05T11:25:17.279Z,33.50
2018-11-05T11:27:45.787Z,33.53
2018-11-05T11:30:14.060Z,31.97
2018-11-05T11:32:42.413Z,32.27
2018-11-05T11:35:10.903Z,31.40
2018-11-05T11:37:39.408Z,29.60
2018-11-05T11:40:07.814Z,30.70
2018-11-05T11:42:36.158Z,31.00
2018-11-05T11:45:04.729Z,32.40
2018-11-05T11:47:32.973Z,32.47
2018-11-05T11:50:02.206Z,30.93
2018-11-05T11:52:30.622Z,31.47
2018-11-05T11:54:58.990Z,33.83
2018-11-05T11:57:27.334Z,31.93
2018-11-05T11:59:56.459Z,32.57
2018-11-05T12:02:24.796Z,29.47
2018-11-05T12:04:53.963Z,30.33
2018-11-05T12:07:22.318Z,32.33
2018-11-05T12:09:50.658Z,32.53
2018-11-05T12:12:19.031Z,30.87
2018-11-05T12:14:47.786Z,30.07
2018-11-05T12:17:16.155Z,30.00
2018-11-05T12:19:44.516Z,32.27
2018-11-05T12:22:12.983Z,31.73
2018-11-05T12:24:41.503Z,30.73
2018-11-05T12:27:09.865Z,31.50
2018-11-05T12:29:38.203Z,31.37
2018-11-05T12:32:06.704Z,29.17
2018-11-05T12:34:35.088Z,31.70
2018-11-05T12:37:03.478Z,31.67
2018-11-05T12:39:31.963Z,32.60
2018-11-05T12:42:00.417Z,32.60
2018-11-05T12:44:28.999Z,33.90
2018-11-05T12:46:57.309Z,32.83
2018-11-05T12:49:25.686Z,33.07
2018-11-05T12:51:54.046Z,34.03
2018-11-05T12:54:22.524Z,34.90
2018-11-05T12:56:50.882Z,34.83
2018-11-05T12:59:19.259Z,35.10
2018-11-05T13:01:48.409Z,36.57
2018-11-05T13:04:16.795Z,34.40
2018-11-05T13:06:45.136Z,35.47
2018-11-05T13:09:13.681Z,35.63
2018-11-05T13:11:42.093Z,35.70
2018-11-05T13:14:10.446Z,35.17
2018-11-05T13:16:39.582Z,35.27
2018-11-05T13:19:07.993Z,36.57
2018-11-05T13:21:36.327Z,35.23
2018-11-05T13:24:04.732Z,36.13
2018-11-05T13:26:33.063Z,35.90
2018-11-05T13:29:02.278Z,35.97
2018-11-05T13:31:31.475Z,37.40
2018-11-05T13:33:59.923Z,36.97
2018-11-05T13:36:28.329Z,36.23
2018-11-05T13:38:56.692Z,37.10
2018-11-05T13:41:25.825Z,35.80
2018-11-05T13:43:54.219Z,34.57
2018-11-05T13:46:23.156Z,34.27
2018-11-05T13:48:51.858Z,37.97
2018-11-05T13:51:19.408Z,36.73
2018-11-05T13:53:48.639Z,35.07
2018-11-05T13:56:17.767Z,33.63
2018-11-05T13:58:46.137Z,33.47
2018-11-05T14:01:14.490Z,36.33
2018-11-05T14:03:42.900Z,37.37
2018-11-05T14:06:11.285Z,33.63
2018-11-05T14:08:39.687Z,36.73
2018-11-05T14:11:08.027Z,37.27
2018-11-05T14:13:36.519Z,36.87
2018-11-05T14:16:04.905Z,36.57
2018-11-05T14:18:33.276Z,38.23
2018-11-05T14:21:01.757Z,37.33
2018-11-05T14:23:30.231Z,41.03
2018-11-05T14:25:58.809Z,40.37
2018-11-05T14:28:27.213Z,39.23
2018-11-05T14:30:55.499Z,39.40
2018-11-05T14:33:23.901Z,39.53
2018-11-05T14:35:52.301Z,41.40
2018-11-05T14:38:20.669Z,40.13
2018-11-05T14:40:48.997Z,40.90
2018-11-05T14:43:17.495Z,41.60
2018-11-05T14:45:45.702Z,42.60
2018-11-05T14:48:14.217Z,42.73
2018-11-05T14:50:42.563Z,43.20
2018-11-05T14:53:10.878Z,45.00
2018-11-05T14:55:39.348Z,44.17
2018-11-05T14:58:07.737Z,45.83
2018-11-05T15:00:36.216Z,45.60
2018-11-05T15:03:04.644Z,46.70
2018-11-05T15:05:32.973Z,45.37
2018-11-05T15:08:01.356Z,44.17
2018-11-05T15:10:29.843Z,44.67
2018-11-05T15:12:58.249Z,43.57
2018-11-05T15:15:27.346Z,45.33
2018-11-05T15:17:55.724Z,47.40
2018-11-05T15:20:24.173Z,46.40
2018-11-05T15:22:52.456Z,46.23
2018-11-05T15:25:20.985Z,47.10
2018-11-05T15:27:49.442Z,44.97
2018-11-05T15:30:17.810Z,47.73
2018-11-05T15:32:46.202Z,48.00
2018-11-05T15:35:15.316Z,45.83
2018-11-05T15:37:43.641Z,43.37
2018-11-05T15:40:12.110Z,46.03
2018-11-05T15:42:41.276Z,48.37
2018-11-05T15:45:09.662Z,47.97
2018-11-05T15:47:38.122Z,47.23
2018-11-05T15:50:06.496Z,46.57
2018-11-05T15:52:35.079Z,45.73
2018-11-05T15:55:03.218Z,47.33
2018-11-05T15:57:31.610Z,50.73
2018-11-05T16:00:00.040Z,51.07
2018-11-05T16:02:28.489Z,53.73
2018-11-05T16:04:56.883Z,52.37
2018-11-05T16:07:25.298Z,53.70
2018-11-05T16:09:53.776Z,54.30
2018-11-05T16:12:22.290Z,52.10
2018-11-05T16:14:51.661Z,56.00
2018-11-05T16:17:20.033Z,56.23
2018-11-05T16:19:48.521Z,54.10
2018-11-05T16:22:17.736Z,57.97
2018-11-05T16:24:46.208Z,58.40
2018-11-05T16:27:14.632Z,59.20
2018-11-05T16:29:43.122Z,59.07
2018-11-05T16:32:11.512Z,60.83
2018-11-05T16:34:40.648Z,53.90
2018-11-05T16:37:09.378Z,51.63
2018-11-05T16:39:37.813Z,40.50
2018-11-05T16:42:06.851Z,50.80
2018-11-05T16:44:35.235Z,55.47
2018-11-05T16:47:03.593Z,57.17
2018-11-05T16:49:31.984Z,55.60
2018-11-05T16:52:00.302Z,61.27
2018-11-05T16:54:28.749Z,57.37
2018-11-05T16:56:58.548Z,56.90
2018-11-05T16:59:26.938Z,55.20
2018-11-05T17:01:56.014Z,57.53
2018-11-05T17:04:24.194Z,56.53
2018-11-05T17:06:52.632Z,57.10
2018-11-05T17:09:21.064Z,56.27
2018-11-05T17:11:49.436Z,58.77
2018-11-05T17:14:17.811Z,56.73
2018-11-05T17:16:46.188Z,57.40
2018-11-05T17:19:15.365Z,57.20
2018-11-05T17:21:43.670Z,58.73
2018-11-05T17:24:12.044Z,58.00
2018-11-05T17:26:40.444Z,56.93
2018-11-05T17:29:08.798Z,57.23
2018-11-05T17:31:37.975Z,58.33
2018-11-05T17:34:06.566Z,60.93
2018-11-05T17:36:34.980Z,58.23
2018-11-05T17:39:03.330Z,56.87
2018-11-05T17:41:32.602Z,59.30
2018-11-05T17:44:01.004Z,55.73
2018-11-05T17:46:29.506Z,56.20
2018-11-05T17:48:57.874Z,54.57
2018-11-05T17:51:26.984Z,54.50
2018-11-05T17:53:55.389Z,57.23
2018-11-05T17:56:23.869Z,57.67
2018-11-05T17:58:52.289Z,55.67
2018-11-05T18:01:20.697Z,58.60
2018-11-05T18:03:49.108Z,56.30
2018-11-05T18:06:18.283Z,56.67
2018-11-05T18:08:47.476Z,53.63
2018-11-05T18:11:15.824Z,56.03
2018-11-05T18:13:44.241Z,53.23
2018-11-05T18:16:13.410Z,53.43
2018-11-05T18:18:41.850Z,55.37
2018-11-05T18:21:10.184Z,53.93
2018-11-05T18:23:39.366Z,51.63
2018-11-05T18:26:07.788Z,52.27
2018-11-05T18:28:36.154Z,52.97
2018-11-05T18:31:05.375Z,49.63
2018-11-05T18:33:33.817Z,49.17
2018-11-05T18:36:02.156Z,51.40
2018-11-05T18:38:30.617Z,49.47
2018-11-05T18:40:59.228Z,49.20
2018-11-05T18:43:27.742Z,49.27
2018-11-05T18:45:56.096Z,51.47
2018-11-05T18:48:24.444Z,50.03
2018-11-05T18:50:52.815Z,49.97
2018-11-05T18:53:21.213Z,50.33
2018-11-05T18:55:49.569Z,50.37
2018-11-05T18:58:18.029Z,51.00
2018-11-05T19:00:47.159Z,55.63
2018-11-05T19:03:15.585Z,54.43
2018-11-05T19:05:44.021Z,51.03
2018-11-05T19:08:13.240Z,49.93
2018-11-05T19:10:41.640Z,46.20
2018-11-05T19:13:10.005Z,52.33
2018-11-05T19:15:38.384Z,50.50
2018-11-05T19:18:06.757Z,49.87
2018-11-05T19:20:35.180Z,51.17
2018-11-05T19:23:03.743Z,51.17
2018-11-05T19:25:32.703Z,51.77
2018-11-05T19:28:01.226Z,49.87
2018-11-05T19:30:29.649Z,51.23
2018-11-05T19:32:58.747Z,49.80
2018-11-05T19:35:27.278Z,51.33
2018-11-05T19:37:55.733Z,49.80
2018-11-05T19:40:24.086Z,48.27
2018-11-05T19:42:52.527Z,51.13
2018-11-05T19:45:20.881Z,62.00
2018-11-05T19:47:49.315Z,53.93
2018-11-05T19:50:18.462Z,50.57
2018-11-05T19:52:46.839Z,49.80
2018-11-05T19:55:15.214Z,51.20
2018-11-05T19:57:43.638Z,49.60
2018-11-05T20:00:12.050Z,51.07
2018-11-05T20:02:40.448Z,50.80
2018-11-05T20:05:08.781Z,49.13
2018-11-05T20:07:37.153Z,46.70
2018-11-05T20:10:06.275Z,48.73
2018-11-05T20:12:34.678Z,50.17
2018-11-05T20:15:03.078Z,48.97
2018-11-05T20:17:31.440Z,49.30
2018-11-05T20:19:59.896Z,54.47
2018-11-05T20:22:28.372Z,59.37
2018-11-05T20:24:56.714Z,54.57
2018-11-05T20:27:25.054Z,50.47
2018-11-05T20:29:53.479Z,48.77
2018-11-05T20:32:22.135Z,50.70
2018-11-05T20:34:50.292Z,49.70
2018-11-05T20:37:18.664Z,52.03
2018-11-05T20:39:47.230Z,52.90
2018-11-05T20:42:15.569Z,52.60
2018-11-05T20:44:44.007Z,50.77
2018-11-05T20:47:12.370Z,49.53
2018-11-05T20:49:40.778Z,51.30
2018-11-05T20:52:09.113Z,51.00
2018-11-05T20:54:38.260Z,51.60
2018-11-05T20:57:06.629Z,51.80
2018-11-05T20:59:34.993Z,52.27
2018-11-05T21:02:03.384Z,48.27
2018-11-05T21:04:31.968Z,42.00
2018-11-05T21:07:00.353Z,44.77
2018-11-05T21:09:28.738Z,45.07
2018-11-05T21:11:57.080Z,45.63
2018-11-05T21:14:25.486Z,42.80
2018-11-05T21:16:53.980Z,43.17
2018-11-05T21:19:22.377Z,42.50
2018-11-05T21:21:50.788Z,43.23
2018-11-05T21:24:19.173Z,42.50
2018-11-05T21:26:47.616Z,44.63
2018-11-05T21:29:15.967Z,43.97
2018-11-05T21:31:44.461Z,41.23
2018-11-05T21:34:12.861Z,37.57
2018-11-05T21:36:41.304Z,37.90
2018-11-05T21:39:09.664Z,36.97
2018-11-05T21:41:38.022Z,35.80
2018-11-05T21:44:07.232Z,35.43
2018-11-05T21:46:35.658Z,35.33
2018-11-05T21:49:04.028Z,35.50
2018-11-05T21:51:32.380Z,36.90
2018-11-05T21:54:01.615Z,36.80
2018-11-05T21:56:29.964Z,36.07
2018-11-05T21:58:58.324Z,35.23
2018-11-05T22:01:27.520Z,32.70
2018-11-05T22:03:56.781Z,33.93
2018-11-05T22:06:25.134Z,31.90
2018-11-05T22:08:53.484Z,33.70
2018-11-05T22:11:22.603Z,33.70
2018-11-05T22:13:50.992Z,33.27
2018-11-05T22:16:19.336Z,33.07
2018-11-05T22:18:48.431Z,32.80
2018-11-05T22:21:17.565Z,32.10
2018-11-05T22:23:46.251Z,32.70
2018-11-05T22:26:14.624Z,33.50
2018-11-05T22:28:43.162Z,52.40
2018-11-05T22:31:11.494Z,42.73
2018-11-05T22:33:39.832Z,34.50
2018-11-05T22:36:08.982Z,30.03
2018-11-05T22:38:37.339Z,28.80
2018-11-05T22:41:05.696Z,29.23
2018-11-05T22:43:34.805Z,28.73
2018-11-05T22:46:03.913Z,29.37
2018-11-05T22:48:32.374Z,29.43
2018-11-05T22:51:00.896Z,28.00
2018-11-05T22:53:29.215Z,29.57
2018-11-05T22:55:57.553Z,29.57
2018-11-05T22:58:25.902Z,29.70
2018-11-05T23:00:54.226Z,27.93
2018-11-05T23:03:22.570Z,29.03
2018-11-05T23:05:50.992Z,28.83
2018-11-05T23:08:19.419Z,27.13
2018-11-05T23:10:47.935Z,28.43
2018-11-05T23:13:16.269Z,28.67
2018-11-05T23:15:44.612Z,29.30
2018-11-05T23:18:13.039Z,28.50
2018-11-05T23:20:41.336Z,28.43
2018-11-05T23:23:09.719Z,26.47
2018-11-05T23:25:38.084Z,27.13
2018-11-05T23:28:06.417Z,26.33
2018-11-05T23:30:34.844Z,24.90
2018-11-05T23:33:03.176Z,25.57
2018-11-05T23:35:31.517Z,25.37
2018-11-05T23:37:59.876Z,23.33
2018-11-05T23:40:28.255Z,23.33
2018-11-05T23:42:56.708Z,24.87
2018-11-05T23:45:25.104Z,37.03
2018-11-05T23:47:53.656Z,29.97
2018-11-05T23:50:22.051Z,23.90
2018-11-05T23:52:50.456Z,23.27
2018-11-05T23:55:18.853Z,23.50
2018-11-05T23:57:47.257Z,23.27
